Time;durP1;ratioP1;P1;durP2;ratioP2;P2;SDS_P1;SDS_P2;PMS_P1;PMS_P2;Temp;Humidity;BMP_temperature;BMP_pressure;BME280_temperature;BME280_humidity;BME280_pressure;Samples;Min_cycle;Max_cycle;Signal;HPM_P1;HPM_P2
2023/01/23 00:01:59;;;;;;;17.80;12.13;;;5.10;99.90;;;;;;6112659;23;20404;-84
2023/01/23 00:04:46;;;;;;;19.70;11.60;;;5.00;99.90;;;;;;6123939;23;20388;-87
2023/01/23 00:07:27;;;;;;;17.07;11.60;;;5.20;99.90;;;;;;6126549;23;20455;-86
2023/01/23 00:09:58;;;;;;;16.80;11.97;;;5.10;99.90;;;;;;6101097;23;20448;-87
2023/01/23 00:12:28;;;;;;;19.90;13.13;;;4.90;99.90;;;;;;6123471;23;20470;-85
2023/01/23 00:15:13;;;;;;;18.93;12.13;;;5.20;99.90;;;;;;6105910;23;20438;-87
2023/01/23 00:17:52;;;;;;;17.70;12.20;;;5.10;99.90;;;;;;6123083;23;20415;-86
2023/01/23 00:20:42;;;;;;;17.10;11.60;;;5.20;99.90;;;;;;6118923;23;21364;-88
2023/01/23 00:23:42;;;;;;;19.13;11.60;;;5.40;99.90;;;;;;6122593;23;20498;-88
2023/01/23 00:26:36;;;;;;;16.60;11.57;;;5.50;99.90;;;;;;6115341;23;20391;-87
2023/01/23 00:29:21;;;;;;;18.77;13.10;;;5.50;99.90;;;;;;6096692;23;20550;-88
2023/01/23 00:32:03;;;;;;;18.37;12.40;;;5.40;99.90;;;;;;6125130;23;20486;-86
2023/01/23 00:34:44;;;;;;;18.20;11.53;;;5.30;99.90;;;;;;6124089;23;20962;-88
2023/01/23 00:37:15;;;;;;;14.57;11.90;;;5.10;99.90;;;;;;6133710;23;20435;-87
2023/01/23 00:39:44;;;;;;;21.00;12.50;;;5.40;99.90;;;;;;6111855;23;20478;-88
2023/01/23 00:42:20;;;;;;;18.83;12.20;;;5.50;99.90;;;;;;6134416;23;20427;-87
2023/01/23 00:44:52;;;;;;;16.97;12.13;;;5.50;99.90;;;;;;6138937;23;20407;-86
2023/01/23 00:47:19;;;;;;;20.13;13.13;;;5.50;99.90;;;;;;6106491;23;20415;-88
2023/01/23 00:49:47;;;;;;;17.00;11.70;;;5.60;99.90;;;;;;6104300;23;20462;-86
2023/01/23 00:52:15;;;;;;;19.20;12.40;;;5.60;99.90;;;;;;6128484;23;20431;-88
2023/01/23 00:54:47;;;;;;;17.50;12.43;;;5.50;99.90;;;;;;6128373;23;20411;-86
2023/01/23 00:57:29;;;;;;;16.90;11.40;;;5.40;99.90;;;;;;6124611;23;20410;-87
2023/01/23 01:00:19;;;;;;;20.63;14.20;;;5.50;99.90;;;;;;6127380;23;20915;-85
2023/01/23 01:02:56;;;;;;;19.17;11.60;;;5.30;99.90;;;;;;6124806;23;20420;-88
2023/01/23 01:05:28;;;;;;;17.70;11.90;;;5.40;99.90;;;;;;6124763;23;20424;-85
2023/01/23 01:08:04;;;;;;;18.43;12.30;;;5.40;99.90;;;;;;6125624;23;20411;-86
2023/01/23 01:10:34;;;;;;;18.77;12.60;;;5.20;99.90;;;;;;6103704;23;20462;-89
2023/01/23 01:13:15;;;;;;;19.20;12.03;;;5.30;99.90;;;;;;6142850;23;20407;-87
2023/01/23 01:16:00;;;;;;;18.50;11.93;;;5.20;99.90;;;;;;6144446;23;20405;-86
2023/01/23 01:18:42;;;;;;;20.77;11.93;;;5.30;99.90;;;;;;6143858;23;20431;-87
2023/01/23 01:21:13;;;;;;;17.83;12.50;;;5.10;99.90;;;;;;6146176;23;20419;-87
2023/01/23 01:23:46;;;;;;;16.50;11.37;;;5.40;99.90;;;;;;6144084;23;20416;-87
2023/01/23 01:26:17;;;;;;;20.87;13.50;;;5.10;99.90;;;;;;6133421;23;20437;-87
2023/01/23 01:28:44;;;;;;;18.83;11.27;;;5.00;99.90;;;;;;6108013;23;20530;-86
2023/01/23 01:31:19;;;;;;;17.23;11.03;;;5.10;99.90;;;;;;6129585;23;20546;-86
2023/01/23 01:34:00;;;;;;;16.57;10.90;;;5.10;99.90;;;;;;6128493;23;20400;-87
2023/01/23 01:36:40;;;;;;;15.20;10.73;;;5.30;99.90;;;;;;6128654;23;20412;-87
2023/01/23 01:39:09;;;;;;;17.50;12.33;;;5.10;99.90;;;;;;6127086;23;20438;-85
2023/01/23 01:41:36;;;;;;;19.70;12.03;;;5.20;99.90;;;;;;6101351;23;20419;-86
2023/01/23 01:44:04;;;;;;;17.47;11.47;;;5.20;99.90;;;;;;6126530;23;20412;-88
2023/01/23 01:46:43;;;;;;;20.93;12.30;;;5.20;99.90;;;;;;6133328;23;20411;-86
2023/01/23 01:49:28;;;;;;;21.60;12.40;;;5.20;99.90;;;;;;6146860;23;20494;-88
2023/01/23 01:52:08;;;;;;;16.47;10.83;;;5.30;99.90;;;;;;6134193;23;20423;-87
2023/01/23 01:54:47;;;;;;;20.13;12.60;;;5.30;99.90;;;;;;6129188;23;20419;-86
2023/01/23 01:57:41;;;;;;;19.00;12.60;;;5.30;99.90;;;;;;6115035;23;20415;-86
2023/01/23 02:00:25;;;;;;;17.80;12.00;;;5.40;99.90;;;;;;6128132;23;20396;-86
2023/01/23 02:03:06;;;;;;;19.10;11.90;;;5.50;99.90;;;;;;6128556;23;20403;-86
2023/01/23 02:05:41;;;;;;;17.17;12.07;;;5.50;99.90;;;;;;6136690;23;20399;-88
2023/01/23 02:08:41;;;;;;;18.43;12.97;;;5.30;99.90;;;;;;6137122;23;20455;-87
2023/01/23 02:11:21;;;;;;;17.27;12.83;;;5.40;99.90;;;;;;6113529;23;20518;-87
2023/01/23 02:14:00;;;;;;;18.53;11.60;;;5.10;99.90;;;;;;6125486;23;20499;-87
2023/01/23 02:16:54;;;;;;;17.60;12.70;;;5.10;99.90;;;;;;6124438;23;20440;-86
2023/01/23 02:19:56;;;;;;;16.93;11.00;;;5.20;99.90;;;;;;6124872;23;20439;-87
2023/01/23 02:22:45;;;;;;;19.27;10.80;;;5.30;99.90;;;;;;6124293;23;20447;-87
2023/01/23 02:25:33;;;;;;;17.77;13.07;;;5.20;99.90;;;;;;6125342;23;20439;-88
2023/01/23 02:28:06;;;;;;;19.40;13.30;;;5.40;99.90;;;;;;6099152;23;20423;-89
2023/01/23 02:30:54;;;;;;;16.67;11.83;;;5.30;99.90;;;;;;6123426;23;20470;-86
2023/01/23 02:33:38;;;;;;;21.30;12.40;;;5.40;99.90;;;;;;6106424;23;20410;-86
2023/01/23 02:36:11;;;;;;;16.03;10.90;;;5.40;99.90;;;;;;6126039;23;20399;-87
2023/01/23 02:39:13;;;;;;;16.40;11.20;;;5.20;99.90;;;;;;6123765;23;20463;-85
2023/01/23 02:42:09;;;;;;;20.13;12.90;;;5.30;99.90;;;;;;6083950;23;20426;-87
2023/01/23 02:44:58;;;;;;;18.10;11.13;;;5.40;99.90;;;;;;6127674;23;20419;-87
2023/01/23 02:48:04;;;;;;;17.53;11.40;;;5.20;99.90;;;;;;6124717;23;20430;-87
2023/01/23 02:50:31;;;;;;;17.87;12.00;;;5.40;99.90;;;;;;6124326;23;20449;-88
2023/01/23 02:53:31;;;;;;;16.23;10.10;;;5.10;99.90;;;;;;6102124;23;20434;-86
2023/01/23 02:56:22;;;;;;;19.07;12.40;;;5.00;99.90;;;;;;6123762;23;20448;-86
2023/01/23 03:01:56;;;;;;;20.37;12.20;;;5.20;99.90;;;;;;6124930;23;20462;-87
2023/01/23 03:04:31;;;;;;;18.53;12.10;;;5.40;99.90;;;;;;6123202;23;20440;-86
2023/01/23 03:06:58;;;;;;;18.60;12.33;;;5.40;99.90;;;;;;6121103;23;20484;-87
2023/01/23 03:09:25;;;;;;;15.80;11.50;;;5.20;99.90;;;;;;6121159;23;20423;-85
2023/01/23 03:11:54;;;;;;;17.87;12.50;;;5.30;99.90;;;;;;6121521;23;20499;-87
2023/01/23 03:14:26;;;;;;;18.50;12.27;;;5.20;99.90;;;;;;6094742;23;20416;-87
2023/01/23 03:16:57;;;;;;;17.23;11.70;;;5.00;99.90;;;;;;6122101;23;20418;-87
2023/01/23 03:19:26;;;;;;;22.10;11.37;;;5.00;99.90;;;;;;6120328;23;20442;-86
2023/01/23 03:21:53;;;;;;;20.30;12.83;;;5.10;99.90;;;;;;6122132;23;20420;-86
2023/01/23 03:24:26;;;;;;;19.13;11.93;;;5.20;99.90;;;;;;6120786;23;20454;-86
2023/01/23 03:26:53;;;;;;;16.60;11.30;;;5.20;99.90;;;;;;6096962;23;20407;-87
2023/01/23 03:32:11;;;;;;;16.60;12.60;;;5.20;99.90;;;;;;6122310;23;20419;-86
2023/01/23 03:34:46;;;;;;;18.17;12.10;;;5.10;99.90;;;;;;6124069;23;20445;-86
2023/01/23 03:37:14;;;;;;;18.40;13.27;;;4.90;99.90;;;;;;6103262;23;20442;-86
2023/01/23 03:42:37;;;;;;;19.47;12.20;;;5.10;99.90;;;;;;6137843;23;20415;-86
2023/01/23 03:45:19;;;;;;;18.97;12.77;;;5.30;99.90;;;;;;6126220;23;20438;-84
2023/01/23 03:47:46;;;;;;;20.10;12.70;;;5.20;99.90;;;;;;6124990;23;20979;-87
2023/01/23 03:50:14;;;;;;;16.57;10.90;;;5.20;99.90;;;;;;6123459;23;20451;-86
2023/01/23 03:52:41;;;;;;;18.10;11.63;;;5.00;99.90;;;;;;6124068;23;20412;-87
2023/01/23 03:55:08;;;;;;;20.37;12.47;;;5.00;99.90;;;;;;6125858;23;20416;-88
2023/01/23 03:57:37;;;;;;;19.13;11.77;;;5.00;99.90;;;;;;6126834;23;20502;-88
2023/01/23 04:00:05;;;;;;;20.70;12.40;;;4.90;99.90;;;;;;6102211;23;20436;-87
2023/01/23 04:02:38;;;;;;;17.37;11.83;;;4.80;99.90;;;;;;6126704;23;20416;-87
2023/01/23 04:05:08;;;;;;;19.23;11.60;;;4.70;99.90;;;;;;6126279;23;20426;-85
2023/01/23 04:07:35;;;;;;;15.93;11.13;;;4.80;99.90;;;;;;6146239;23;20407;-86
2023/01/23 04:10:02;;;;;;;19.30;12.70;;;4.80;99.90;;;;;;6143635;23;20581;-86
2023/01/23 04:12:29;;;;;;;19.90;12.40;;;5.00;99.90;;;;;;6137085;23;20411;-86
2023/01/23 04:14:56;;;;;;;19.60;11.80;;;5.00;99.90;;;;;;6103270;23;20408;-86
2023/01/23 04:17:23;;;;;;;21.00;13.87;;;5.10;99.90;;;;;;6124781;23;20420;-88
2023/01/23 04:19:50;;;;;;;21.00;12.70;;;5.10;99.90;;;;;;6131180;23;20463;-87
2023/01/23 04:22:17;;;;;;;19.03;12.70;;;5.00;99.90;;;;;;6136226;23;20970;-86
2023/01/23 04:24:46;;;;;;;18.90;11.43;;;5.00;99.90;;;;;;6133389;23;20427;-86
2023/01/23 04:27:13;;;;;;;18.20;12.60;;;5.10;99.90;;;;;;6127332;23;20438;-86
2023/01/23 04:29:41;;;;;;;17.83;12.53;;;5.10;99.90;;;;;;6101985;23;20466;-86
2023/01/23 04:32:15;;;;;;;20.50;12.83;;;5.00;99.90;;;;;;6135057;23;20455;-86
2023/01/23 04:34:42;;;;;;;18.67;11.90;;;5.10;99.90;;;;;;6142857;23;20443;-87
2023/01/23 04:37:10;;;;;;;18.57;12.23;;;5.00;99.90;;;;;;6143553;23;20407;-87
2023/01/23 04:39:37;;;;;;;17.00;12.00;;;4.70;99.90;;;;;;6137987;23;21314;-86
2023/01/23 04:42:04;;;;;;;19.60;12.67;;;4.70;99.90;;;;;;6120507;23;20420;-86
2023/01/23 04:44:33;;;;;;;15.80;11.40;;;4.60;99.90;;;;;;6118404;23;20416;-85
2023/01/23 04:47:00;;;;;;;15.63;11.17;;;4.60;99.90;;;;;;6119132;23;20645;-86
2023/01/23 04:49:28;;;;;;;16.70;11.50;;;4.90;99.90;;;;;;6118801;23;20948;-86
2023/01/23 04:51:57;;;;;;;15.27;11.37;;;5.00;99.90;;;;;;6121505;23;20454;-86
2023/01/23 04:54:28;;;;;;;17.20;11.67;;;4.90;99.90;;;;;;6093855;23;20419;-86
2023/01/23 04:56:57;;;;;;;19.40;10.90;;;4.90;99.90;;;;;;6093309;23;20451;-87
2023/01/23 04:59:27;;;;;;;19.73;12.00;;;4.90;99.90;;;;;;6119918;23;20446;-86
2023/01/23 05:01:57;;;;;;;16.80;12.00;;;5.00;99.90;;;;;;6121021;23;20419;-86
2023/01/23 05:04:26;;;;;;;16.17;11.50;;;5.20;99.90;;;;;;6122249;23;20412;-86
2023/01/23 05:06:53;;;;;;;23.63;12.67;;;5.20;99.90;;;;;;6121273;23;20426;-85
2023/01/23 05:09:23;;;;;;;20.03;12.83;;;5.10;99.90;;;;;;6122898;23;20448;-87
2023/01/23 05:11:50;;;;;;;17.67;12.37;;;5.00;99.90;;;;;;6118520;23;20534;-87
2023/01/23 05:14:17;;;;;;;19.40;11.97;;;4.90;99.90;;;;;;6122488;23;20408;-87
2023/01/23 05:16:44;;;;;;;18.20;11.67;;;4.70;99.90;;;;;;6102529;23;20427;-86
2023/01/23 05:19:10;;;;;;;18.27;11.70;;;4.60;99.90;;;;;;6100999;23;20431;-87
2023/01/23 05:21:38;;;;;;;17.50;11.03;;;4.50;99.90;;;;;;6121288;23;20458;-86
2023/01/23 05:24:05;;;;;;;17.83;12.07;;;4.50;99.90;;;;;;6118600;23;20416;-87
2023/01/23 05:26:34;;;;;;;18.77;11.43;;;4.50;99.90;;;;;;6117973;23;20442;-86
2023/01/23 05:29:04;;;;;;;15.73;10.97;;;4.60;99.90;;;;;;6096303;23;20444;-86
2023/01/23 05:31:31;;;;;;;18.03;12.47;;;4.60;99.90;;;;;;6119183;23;20940;-88
2023/01/23 05:33:58;;;;;;;17.80;12.40;;;4.40;99.90;;;;;;6122359;23;20439;-87
2023/01/23 05:36:25;;;;;;;17.73;11.80;;;4.40;99.90;;;;;;6122725;23;20419;-87
2023/01/23 05:38:54;;;;;;;14.40;10.67;;;4.30;99.90;;;;;;6120438;23;21203;-85
2023/01/23 05:41:24;;;;;;;17.40;10.53;;;4.50;99.90;;;;;;6118429;23;20509;-85
2023/01/23 05:43:51;;;;;;;17.83;10.70;;;4.40;99.90;;;;;;6120334;23;20790;-86
2023/01/23 05:46:18;;;;;;;14.80;10.53;;;4.50;99.90;;;;;;6118254;23;20507;-87
2023/01/23 05:48:49;;;;;;;16.53;11.43;;;4.50;99.90;;;;;;6122027;23;20983;-88
2023/01/23 05:51:17;;;;;;;15.13;10.50;;;4.50;99.90;;;;;;6120480;23;20482;-87
2023/01/23 05:53:46;;;;;;;15.63;9.80;;;4.60;99.90;;;;;;6122240;23;20411;-85
2023/01/23 05:56:14;;;;;;;17.43;10.40;;;4.60;99.90;;;;;;6124861;23;20510;-86
2023/01/23 05:58:41;;;;;;;16.90;10.10;;;4.50;99.90;;;;;;6120500;23;20843;-86
2023/01/23 06:01:08;;;;;;;16.30;11.60;;;4.50;99.90;;;;;;6123956;23;20415;-86
2023/01/23 06:03:37;;;;;;;15.67;11.43;;;4.40;99.90;;;;;;6121122;23;20426;-88
2023/01/23 06:06:04;;;;;;;15.53;10.87;;;4.50;99.90;;;;;;6123804;23;20482;-85
2023/01/23 06:08:31;;;;;;;16.20;10.23;;;4.40;99.90;;;;;;6124789;23;21321;-87
2023/01/23 06:10:58;;;;;;;17.30;11.87;;;4.20;99.90;;;;;;6123784;23;20439;-86
2023/01/23 06:13:28;;;;;;;13.87;10.83;;;4.20;99.90;;;;;;6122630;23;20799;-87
2023/01/23 06:15:59;;;;;;;14.10;9.93;;;4.20;99.90;;;;;;6124392;23;20467;-86
2023/01/23 06:18:29;;;;;;;15.60;10.70;;;4.40;99.90;;;;;;6124961;23;20431;-86
2023/01/23 06:20:58;;;;;;;14.77;10.90;;;4.50;99.90;;;;;;6141362;23;20447;-87
2023/01/23 06:23:26;;;;;;;14.43;9.87;;;4.40;99.90;;;;;;6143473;23;20412;-87
2023/01/23 06:25:57;;;;;;;15.97;10.50;;;4.20;99.90;;;;;;6134224;23;20415;-86
2023/01/23 06:28:27;;;;;;;13.20;10.20;;;4.30;99.90;;;;;;6139728;23;20431;-86
2023/01/23 06:31:02;;;;;;;13.97;10.10;;;4.30;99.90;;;;;;6139353;23;20594;-87
2023/01/23 06:33:31;;;;;;;15.73;10.90;;;4.40;99.90;;;;;;6142328;23;20490;-84
2023/01/23 06:36:06;;;;;;;16.70;11.57;;;4.40;99.90;;;;;;6144122;23;20416;-85
2023/01/23 06:38:52;;;;;;;18.33;11.00;;;4.40;99.90;;;;;;6133020;23;20754;-84
2023/01/23 06:41:19;;;;;;;15.27;10.93;;;4.40;99.90;;;;;;6131771;23;20418;-85
2023/01/23 06:43:50;;;;;;;16.27;10.03;;;4.60;99.90;;;;;;6135405;23;20430;-86
2023/01/23 06:46:18;;;;;;;18.07;10.60;;;4.60;99.90;;;;;;6132939;23;20418;-85
2023/01/23 06:48:45;;;;;;;15.43;10.00;;;4.40;99.90;;;;;;6133041;23;20432;-85
2023/01/23 06:51:12;;;;;;;15.23;10.20;;;4.30;99.90;;;;;;6137280;23;20470;-86
2023/01/23 06:53:41;;;;;;;12.80;9.10;;;4.20;99.90;;;;;;6136969;23;20479;-87
2023/01/23 06:56:08;;;;;;;14.50;10.30;;;4.30;99.90;;;;;;6135352;23;20426;-87
2023/01/23 06:58:37;;;;;;;13.13;9.93;;;4.40;99.90;;;;;;6138962;23;20435;-86
2023/01/23 07:01:11;;;;;;;13.87;10.57;;;4.60;99.90;;;;;;6109697;23;20419;-87
2023/01/23 07:03:41;;;;;;;16.97;11.07;;;4.70;99.90;;;;;;6125551;23;20419;-87
2023/01/23 07:06:08;;;;;;;12.37;9.60;;;4.90;99.90;;;;;;6122325;23;20414;-87
2023/01/23 07:08:38;;;;;;;15.17;10.50;;;4.60;99.90;;;;;;6120643;23;20471;-88
2023/01/23 07:11:06;;;;;;;14.13;10.70;;;4.60;99.90;;;;;;6119450;23;20428;-85
2023/01/23 07:13:33;;;;;;;16.10;9.87;;;4.50;99.90;;;;;;6120183;23;20412;-86
2023/01/23 07:16:01;;;;;;;13.87;9.50;;;4.70;99.90;;;;;;6118734;23;20426;-85
2023/01/23 07:18:29;;;;;;;12.77;8.97;;;4.60;99.90;;;;;;6120028;23;20462;-85
2023/01/23 07:20:56;;;;;;;13.93;9.83;;;4.70;99.90;;;;;;6119977;23;20423;-85
2023/01/23 07:23:26;;;;;;;13.40;9.70;;;4.80;99.90;;;;;;6095026;23;20450;-86
2023/01/23 07:26:08;;;;;;;12.43;9.27;;;4.80;99.90;;;;;;6120163;23;20423;-85
2023/01/23 07:28:36;;;;;;;13.40;10.00;;;4.70;99.90;;;;;;6118517;23;20423;-86
2023/01/23 07:31:04;;;;;;;12.20;8.83;;;4.90;99.90;;;;;;6119613;23;20440;-85
2023/01/23 07:33:31;;;;;;;15.90;10.70;;;4.60;99.90;;;;;;6120274;23;20400;-86
2023/01/23 07:36:02;;;;;;;12.93;9.77;;;4.60;99.90;;;;;;6122690;23;20416;-85
2023/01/23 07:38:33;;;;;;;12.73;9.63;;;4.60;99.90;;;;;;6117556;23;20439;-86
2023/01/23 07:41:00;;;;;;;12.67;9.23;;;4.70;99.90;;;;;;6128571;23;20427;-86
2023/01/23 07:43:27;;;;;;;17.70;10.87;;;4.80;99.90;;;;;;6140975;23;20408;-87
2023/01/23 07:46:00;;;;;;;9.97;8.33;;;4.70;99.90;;;;;;6144678;23;20412;-87
2023/01/23 07:48:28;;;;;;;14.37;8.67;;;4.50;99.90;;;;;;6118137;23;20483;-88
2023/01/23 07:51:00;;;;;;;16.40;10.50;;;4.80;99.90;;;;;;6145000;23;20432;-86
2023/01/23 07:53:28;;;;;;;12.53;9.87;;;4.90;99.90;;;;;;6143924;23;20439;-86
2023/01/23 07:55:58;;;;;;;15.20;9.67;;;4.90;99.90;;;;;;6131955;23;20456;-86
2023/01/23 07:58:25;;;;;;;13.63;9.30;;;5.00;99.90;;;;;;6133742;23;20447;-87
2023/01/23 08:00:52;;;;;;;16.70;9.60;;;4.80;99.90;;;;;;6136170;23;20455;-86
2023/01/23 08:03:22;;;;;;;11.53;8.87;;;4.90;99.90;;;;;;6129765;23;20483;-88
2023/01/23 08:05:49;;;;;;;11.00;8.20;;;4.90;99.90;;;;;;6125868;23;20419;-86
2023/01/23 08:08:16;;;;;;;12.90;8.40;;;4.80;99.90;;;;;;6127170;23;20584;-86
2023/01/23 08:10:45;;;;;;;14.30;9.00;;;5.00;99.90;;;;;;6128435;23;20744;-88
2023/01/23 08:13:12;;;;;;;13.50;9.07;;;5.10;99.90;;;;;;6126742;23;20443;-86
2023/01/23 08:15:48;;;;;;;14.70;9.93;;;5.10;99.90;;;;;;6127858;23;20896;-87
2023/01/23 08:18:18;;;;;;;14.63;10.47;;;4.90;99.90;;;;;;6126208;23;20436;-87
2023/01/23 08:20:53;;;;;;;14.20;9.80;;;4.80;99.90;;;;;;6126781;23;20448;-87
2023/01/23 08:23:26;;;;;;;12.37;9.07;;;4.80;99.90;;;;;;6128539;23;20399;-87
2023/01/23 08:25:55;;;;;;;12.50;8.10;;;4.80;99.90;;;;;;6125181;23;20825;-88
2023/01/23 08:28:23;;;;;;;12.37;8.67;;;5.00;99.90;;;;;;6126104;23;20439;-87
2023/01/23 08:30:54;;;;;;;15.23;9.13;;;5.30;99.90;;;;;;6129576;23;20400;-87
2023/01/23 08:33:23;;;;;;;12.17;10.27;;;5.20;99.90;;;;;;6138482;23;20483;-87
2023/01/23 08:35:52;;;;;;;11.73;8.73;;;5.00;99.90;;;;;;6137925;23;20885;-87
2023/01/23 08:38:24;;;;;;;15.70;9.87;;;5.20;99.90;;;;;;6128333;23;20933;-87
2023/01/23 08:40:54;;;;;;;13.60;9.40;;;5.20;99.90;;;;;;6127351;23;20748;-87
2023/01/23 08:43:21;;;;;;;14.00;9.67;;;5.30;99.90;;;;;;6133064;23;20450;-87
2023/01/23 08:45:51;;;;;;;15.13;10.80;;;5.50;99.90;;;;;;6144119;23;20443;-87
2023/01/23 08:48:19;;;;;;;15.67;10.80;;;5.60;99.90;;;;;;6124225;23;20444;-85
2023/01/23 08:50:46;;;;;;;13.90;10.30;;;5.60;99.90;;;;;;6096577;23;20514;-85
2023/01/23 08:53:14;;;;;;;14.83;9.97;;;5.70;99.90;;;;;;6119025;23;20419;-86
2023/01/23 08:55:44;;;;;;;15.80;11.57;;;5.60;99.90;;;;;;6119565;23;20424;-88
2023/01/23 08:58:13;;;;;;;13.27;9.10;;;5.50;99.90;;;;;;6096121;23;20420;-86
2023/01/23 09:00:44;;;;;;;13.47;10.27;;;5.40;99.90;;;;;;6124223;23;20428;-86
2023/01/23 09:03:10;;;;;;;14.70;10.10;;;5.40;99.90;;;;;;6121873;23;20412;-86
2023/01/23 09:05:40;;;;;;;16.03;11.33;;;5.20;99.90;;;;;;6122333;23;20506;-87
2023/01/23 09:08:07;;;;;;;15.80;10.50;;;5.40;99.90;;;;;;6120748;23;20419;-86
2023/01/23 09:10:35;;;;;;;16.00;10.00;;;5.60;99.90;;;;;;6121956;23;20416;-85
2023/01/23 09:13:06;;;;;;;14.97;10.10;;;5.60;99.90;;;;;;6102447;23;20443;-84
2023/01/23 09:15:33;;;;;;;15.80;10.50;;;5.50;99.90;;;;;;6134490;23;20415;-88
2023/01/23 09:18:00;;;;;;;15.50;10.07;;;5.70;99.90;;;;;;6135214;23;20495;-88
2023/01/23 09:20:27;;;;;;;15.37;10.73;;;5.70;99.90;;;;;;6106399;23;20416;-87
2023/01/23 09:22:56;;;;;;;13.73;9.53;;;5.40;99.90;;;;;;6084712;23;20420;-86
2023/01/23 09:25:30;;;;;;;13.90;9.63;;;5.40;99.90;;;;;;6132335;23;21049;-86
2023/01/23 09:28:00;;;;;;;13.50;9.50;;;5.30;99.90;;;;;;6135919;23;20408;-86
2023/01/23 09:30:27;;;;;;;15.30;10.60;;;5.00;99.90;;;;;;6135791;23;20424;-86
2023/01/23 09:32:54;;;;;;;15.60;9.90;;;4.80;99.90;;;;;;6135128;23;20811;-85
2023/01/23 09:35:27;;;;;;;13.40;9.83;;;5.10;99.90;;;;;;6124047;23;20411;-86
2023/01/23 09:38:00;;;;;;;14.93;9.87;;;5.10;99.90;;;;;;6122608;23;20494;-87
2023/01/23 09:40:31;;;;;;;15.63;9.70;;;5.10;99.90;;;;;;6126308;23;20541;-87
2023/01/23 09:43:14;;;;;;;15.47;10.73;;;5.30;99.90;;;;;;6127673;23;21023;-87
2023/01/23 09:45:48;;;;;;;15.67;10.40;;;5.40;99.90;;;;;;6123050;23;20503;-87
2023/01/23 09:49:04;;;;;;;17.50;11.10;;;5.40;99.90;;;;;;6123610;23;20440;-88
2023/01/23 09:52:02;;;;;;;16.97;12.23;;;5.40;99.90;;;;;;6110569;23;20435;-88
2023/01/23 09:54:43;;;;;;;20.97;12.60;;;5.50;99.90;;;;;;6120227;23;20423;-86
2023/01/23 09:57:29;;;;;;;19.43;12.87;;;5.60;99.90;;;;;;6119104;23;20415;-87
2023/01/23 10:00:19;;;;;;;15.90;11.73;;;5.70;99.90;;;;;;6120306;23;20419;-85
2023/01/23 10:02:47;;;;;;;19.77;13.10;;;5.60;99.90;;;;;;6134213;23;20430;-87
2023/01/23 10:05:42;;;;;;;18.90;11.97;;;5.60;99.90;;;;;;6114801;23;20407;-86
2023/01/23 10:08:30;;;;;;;16.20;11.23;;;5.60;99.90;;;;;;6139720;23;20432;-88
2023/01/23 10:11:12;;;;;;;15.97;12.03;;;5.70;99.90;;;;;;6116430;23;20412;-86
2023/01/23 10:13:40;;;;;;;16.67;11.50;;;5.80;99.90;;;;;;6146940;23;20404;-85
2023/01/23 10:16:49;;;;;;;16.83;11.80;;;5.80;99.90;;;;;;6138580;23;20399;-84
2023/01/23 10:22:25;;;;;;;12.40;9.40;;;5.70;99.90;;;;;;6144615;23;20415;-86
2023/01/23 10:24:59;;;;;;;14.40;9.63;;;5.60;99.90;;;;;;6145164;23;20419;-85
2023/01/23 10:27:44;;;;;;;17.07;11.40;;;5.70;99.90;;;;;;6124284;23;20407;-87
2023/01/23 10:30:36;;;;;;;12.10;9.37;;;5.90;99.90;;;;;;6097240;23;20566;-84
2023/01/23 10:33:19;;;;;;;14.90;10.30;;;5.80;99.90;;;;;;6118947;23;20456;-85
2023/01/23 10:36:04;;;;;;;16.87;11.23;;;5.60;99.90;;;;;;6120786;23;20409;-87
2023/01/23 10:38:51;;;;;;;13.37;9.93;;;6.10;99.90;;;;;;6093796;23;20444;-86
2023/01/23 10:41:28;;;;;;;14.20;10.27;;;5.90;99.90;;;;;;6104265;23;20449;-85
2023/01/23 10:44:16;;;;;;;17.80;12.07;;;6.10;99.90;;;;;;6158257;23;20383;-87
2023/01/23 10:47:03;;;;;;;14.00;10.47;;;6.10;99.90;;;;;;6155945;23;20407;-85
2023/01/23 10:49:46;;;;;;;15.33;9.20;;;5.90;99.90;;;;;;6154858;23;20461;-86
2023/01/23 10:52:35;;;;;;;13.77;8.97;;;5.70;99.90;;;;;;6153850;23;20477;-85
2023/01/23 10:55:26;;;;;;;12.77;10.23;;;5.80;99.90;;;;;;6152475;23;20406;-87
2023/01/23 11:00:36;;;;;;;12.50;9.50;;;5.90;99.80;;;;;;6158240;22;20445;-84
2023/01/23 11:08:37;;;;;;;12.20;9.30;;;6.30;99.30;;;;;;6190475;22;20442;-85
2023/01/23 11:11:24;;;;;;;17.43;11.10;;;6.40;99.40;;;;;;6208627;23;20416;-87
2023/01/23 11:14:23;;;;;;;14.97;10.50;;;6.70;99.10;;;;;;6207607;23;20460;-86
2023/01/23 11:17:24;;;;;;;18.40;10.90;;;6.60;98.60;;;;;;6204505;23;20422;-85
2023/01/23 11:19:56;;;;;;;14.50;9.00;;;6.40;98.80;;;;;;6200349;23;20441;-87
2023/01/23 11:22:36;;;;;;;14.60;9.60;;;6.40;98.90;;;;;;6200635;23;20418;-87
2023/01/23 11:25:49;;;;;;;14.07;9.67;;;6.50;98.90;;;;;;6201660;23;20516;-85
2023/01/23 11:28:49;;;;;;;13.43;9.80;;;6.50;98.70;;;;;;6204010;23;20429;-86
2023/01/23 11:31:21;;;;;;;18.10;10.23;;;6.70;98.40;;;;;;6197766;23;20413;-86
2023/01/23 11:34:23;;;;;;;12.53;8.30;;;6.60;98.30;;;;;;6199601;23;20409;-87
2023/01/23 11:37:23;;;;;;;10.60;7.10;;;6.50;98.40;;;;;;6177652;23;20429;-84
2023/01/23 11:40:02;;;;;;;16.43;11.17;;;6.50;98.40;;;;;;6197015;23;20433;-87
2023/01/23 11:43:02;;;;;;;14.00;8.47;;;6.40;98.20;;;;;;6201410;23;20437;-88
2023/01/23 11:46:11;;;;;;;12.50;9.20;;;6.30;98.30;;;;;;6200317;23;20409;-86
2023/01/23 11:49:27;;;;;;;12.60;8.00;;;6.40;98.70;;;;;;6197132;23;20437;-86
2023/01/23 11:52:46;;;;;;;10.97;8.00;;;6.60;98.00;;;;;;6205340;23;20460;-87
2023/01/23 11:56:04;;;;;;;10.93;7.40;;;6.50;96.90;;;;;;6171598;23;21887;-85
2023/01/23 12:01:42;;;;;;;15.40;8.67;;;6.50;97.40;;;;;;6208188;22;20513;-87
2023/01/23 12:05:04;;;;;;;11.37;8.63;;;6.60;97.00;;;;;;6147554;23;20406;-87
2023/01/23 12:07:50;;;;;;;8.63;6.90;;;6.60;96.70;;;;;;6162753;23;20505;-86
2023/01/23 12:10:35;;;;;;;7.83;5.90;;;6.50;96.30;;;;;;6175458;23;20460;-87
2023/01/23 12:13:26;;;;;;;6.20;5.60;;;6.70;95.90;;;;;;6196877;23;20468;-85
2023/01/23 12:16:17;;;;;;;8.37;6.03;;;6.70;95.40;;;;;;6195097;23;20414;-87
2023/01/23 12:19:10;;;;;;;6.87;5.50;;;6.40;95.30;;;;;;6200592;23;20426;-86
2023/01/23 12:22:18;;;;;;;9.50;5.83;;;6.80;95.00;;;;;;6201261;23;20395;-85
2023/01/23 12:25:14;;;;;;;8.23;6.23;;;6.80;94.70;;;;;;6198323;23;20412;-85
2023/01/23 12:28:19;;;;;;;9.40;6.57;;;6.40;94.50;;;;;;6200429;23;20398;-86
2023/01/23 12:31:17;;;;;;;6.33;4.63;;;6.50;95.10;;;;;;6198430;23;20412;-86
2023/01/23 12:34:19;;;;;;;4.27;3.87;;;6.50;94.60;;;;;;6194012;23;20482;-85
2023/01/23 12:37:08;;;;;;;3.93;3.43;;;6.30;93.70;;;;;;6193027;23;20410;-87
2023/01/23 12:40:09;;;;;;;4.20;3.80;;;6.30;93.40;;;;;;6187897;23;20437;-85
2023/01/23 12:42:55;;;;;;;4.47;4.07;;;6.20;93.20;;;;;;6194809;23;20405;-85
2023/01/23 12:45:30;;;;;;;5.20;4.30;;;6.10;93.50;;;;;;6181150;23;20477;-85
2023/01/23 12:48:36;;;;;;;6.20;5.03;;;6.20;93.70;;;;;;6207522;23;20393;-87
2023/01/23 12:53:59;;;;;;;5.80;4.27;;;6.10;94.40;;;;;;6191205;22;20231;-85
2023/01/23 12:56:34;;;;;;;5.00;4.60;;;6.30;94.40;;;;;;6154059;23;20420;-87
2023/01/23 13:02:03;;;;;;;5.43;4.90;;;6.40;94.10;;;;;;6193600;22;20438;-85
2023/01/23 13:04:56;;;;;;;5.10;4.60;;;6.20;94.20;;;;;;6184045;23;20414;-85
2023/01/23 13:08:06;;;;;;;5.70;4.73;;;6.50;94.50;;;;;;6180127;23;20389;-86
2023/01/23 13:11:41;;;;;;;5.33;4.50;;;6.50;93.50;;;;;;6140516;23;20397;-85
2023/01/23 13:14:41;;;;;;;7.13;5.63;;;6.70;93.40;;;;;;6140817;23;21221;-87
2023/01/23 13:17:36;;;;;;;4.73;4.30;;;6.60;93.50;;;;;;6143824;23;20494;-87
2023/01/23 13:23:34;;;;;;;4.23;3.83;;;6.60;93.70;;;;;;6166442;23;20796;-86
2023/01/23 13:26:21;;;;;;;6.47;5.07;;;6.50;93.30;;;;;;6185636;23;20493;-86
2023/01/23 13:29:02;;;;;;;8.57;5.33;;;6.40;93.50;;;;;;6199942;23;20426;-85
2023/01/23 13:31:48;;;;;;;4.50;3.97;;;6.50;94.10;;;;;;6122987;23;20497;-86
2023/01/23 13:34:29;;;;;;;5.63;4.23;;;6.40;94.20;;;;;;6139275;23;20442;-85
2023/01/23 13:37:42;;;;;;;5.63;3.93;;;6.70;93.80;;;;;;6169549;23;20418;-86
2023/01/23 13:40:23;;;;;;;6.40;5.60;;;6.70;93.30;;;;;;6030473;23;20465;-87
2023/01/23 13:42:57;;;;;;;5.70;4.20;;;6.50;93.10;;;;;;6051843;23;20430;-88
2023/01/23 13:45:34;;;;;;;6.20;4.70;;;6.40;93.40;;;;;;6133115;23;20418;-86
2023/01/23 13:51:51;;;;;;;6.20;5.33;;;6.50;93.90;;;;;;6000936;23;20479;-87
2023/01/23 13:57:36;;;;;;;6.40;4.33;;;6.60;93.90;;;;;;5886840;24;20391;-86
2023/01/23 14:00:23;;;;;;;9.90;4.67;;;6.60;93.50;;;;;;5831183;24;20421;-86
2023/01/23 14:06:34;;;;;;;6.27;5.43;;;6.50;93.80;;;;;;5778011;24;20482;-86
2023/01/23 14:09:19;;;;;;;5.73;4.30;;;6.50;93.80;;;;;;5761290;24;20486;-85
2023/01/23 14:12:04;;;;;;;6.77;5.03;;;6.70;93.70;;;;;;5761709;24;20450;-86
2023/01/23 14:17:45;;;;;;;5.73;5.13;;;7.00;93.20;;;;;;5843968;24;20411;-87